createdAt,value
2023-03-28T00:05:13.864Z,21.9
2023-03-28T00:22:02.212Z,21.9
2023-03-28T00:27:22.054Z,21.9
2023-03-28T00:32:58.056Z,21.9
2023-03-28T00:38:50.091Z,21.9
2023-03-28T00:44:26.028Z,22
2023-03-28T00:50:35.388Z,21.9
2023-03-28T00:56:11.406Z,22
2023-03-28T01:01:46.925Z,21.9
2023-03-28T01:07:24.359Z,22
2023-03-28T01:13:00.740Z,22
2023-03-28T01:18:39.000Z,22
2023-03-28T01:24:11.095Z,22
2023-03-28T01:29:01.425Z,22
2023-03-28T01:34:37.586Z,22
2023-03-28T01:40:15.016Z,22
2023-03-28T01:45:51.249Z,22
2023-03-28T01:51:27.302Z,22.1
2023-03-28T01:57:10.513Z,22.1
2023-03-28T02:02:47.181Z,22.1
2023-03-28T02:08:23.357Z,22.1
2023-03-28T02:14:15.184Z,22.1
2023-03-28T02:20:06.523Z,22.1
2023-03-28T02:25:42.609Z,22.1
2023-03-28T02:31:34.738Z,22.1
2023-03-28T02:37:26.242Z,22.1
2023-03-28T02:43:17.484Z,22.1
2023-03-28T02:49:12.735Z,22.1
2023-03-28T02:54:42.400Z,22.1
2023-03-28T03:00:33.643Z,22.1
2023-03-28T03:06:11.477Z,22.1
2023-03-28T03:11:47.551Z,22.1
2023-03-28T03:17:24.133Z,22.1
2023-03-28T03:23:00.507Z,22.1
2023-03-28T03:28:23.020Z,22.1
2023-03-28T03:34:11.272Z,22.1
2023-03-28T03:39:48.259Z,22.1
2023-03-28T03:45:24.707Z,22.1
2023-03-28T03:50:51.347Z,22.1
2023-03-28T03:56:27.919Z,22.1
2023-03-28T04:01:48.577Z,22.1
2023-03-28T04:07:37.886Z,22.1
2023-03-28T04:13:14.513Z,22.1
2023-03-28T04:19:02.021Z,22.1
2023-03-28T04:25:02.726Z,22.1
2023-03-28T04:30:39.947Z,22.1
2023-03-28T04:36:16.654Z,22.1
2023-03-28T04:41:14.110Z,22.1
2023-03-28T04:46:36.237Z,22.1
2023-03-28T04:52:27.822Z,22.1
2023-03-28T04:58:19.789Z,22.1
2023-03-28T05:03:57.333Z,22.1
2023-03-28T05:09:49.367Z,22.1
2023-03-28T05:15:44.694Z,22.1
2023-03-28T05:21:37.120Z,22.1
2023-03-28T05:27:31.493Z,22.1
2023-03-28T05:33:22.789Z,22.1
2023-03-28T05:39:14.682Z,22
2023-03-28T05:45:05.829Z,22.1
2023-03-28T05:50:57.000Z,22.1
2023-03-28T05:56:37.318Z,22
2023-03-28T06:02:29.690Z,22
2023-03-28T06:08:35.387Z,22.1
2023-03-28T06:14:27.217Z,22
2023-03-28T06:20:43.841Z,22.1
2023-03-28T06:26:20.177Z,22.1
2023-03-28T06:32:13.104Z,22
2023-03-28T06:38:05.192Z,22
2023-03-28T06:43:57.050Z,22
2023-03-28T06:49:33.815Z,22.1
2023-03-28T06:55:10.235Z,22
2023-03-28T07:01:01.073Z,22
2023-03-28T07:06:57.302Z,22
2023-03-28T07:12:32.833Z,22.1
2023-03-28T07:18:26.181Z,22.1
2023-03-28T07:24:26.807Z,22.1
2023-03-28T07:30:36.743Z,22.1
2023-03-28T07:37:00.370Z,22.1
2023-03-28T07:42:21.168Z,22.1
2023-03-28T07:47:57.113Z,22.1
2023-03-28T07:53:48.218Z,22.1
2023-03-28T07:59:50.975Z,22.1
2023-03-28T08:05:43.058Z,22.1
2023-03-28T08:11:49.067Z,22.1
2023-03-28T08:17:41.242Z,22
2023-03-28T08:23:44.792Z,22.1
2023-03-28T08:29:30.896Z,22.1
2023-03-28T08:35:23.070Z,22.1
2023-03-28T08:41:17.825Z,22.1
2023-03-28T08:46:53.774Z,22.1
2023-03-28T08:52:48.742Z,22
2023-03-28T08:58:41.716Z,22
2023-03-28T09:04:36.389Z,22
2023-03-28T09:10:44.039Z,22
2023-03-28T09:16:19.818Z,21.9
2023-03-28T09:22:34.403Z,21.9
2023-03-28T09:28:27.135Z,21.9
2023-03-28T09:34:05.079Z,21.9
2023-03-28T09:40:08.051Z,21.9
2023-03-28T09:46:10.981Z,21.9
2023-03-28T09:52:13.598Z,21.9
2023-03-28T09:57:58.982Z,21.9
2023-03-28T10:03:51.812Z,21.9
2023-03-28T10:09:43.088Z,21.9
2023-03-28T10:15:33.826Z,21.9
2023-03-28T10:21:25.760Z,21.9
2023-03-28T10:27:16.158Z,21.9
2023-03-28T10:32:52.607Z,21.9
2023-03-28T10:38:46.100Z,21.9
2023-03-28T10:44:38.157Z,21.9
2023-03-28T10:50:29.262Z,21.9
2023-03-28T10:56:21.670Z,21.9
2023-03-28T11:02:13.673Z,21.9
2023-03-28T11:08:24.663Z,21.9
2023-03-28T11:14:32.404Z,21.9
2023-03-28T11:20:08.453Z,21.9
2023-03-28T11:26:11.761Z,21.9
2023-03-28T11:32:32.536Z,21.9
2023-03-28T11:38:08.734Z,21.9
2023-03-28T11:44:01.476Z,21.9
2023-03-28T11:50:07.352Z,21.9
2023-03-28T11:55:59.442Z,21.9
2023-03-28T12:02:00.331Z,21.9
2023-03-28T12:08:10.328Z,21.9
2023-03-28T12:14:11.868Z,21.9
2023-03-28T12:20:05.104Z,21.9
2023-03-28T12:25:58.252Z,21.9
2023-03-28T12:31:34.605Z,21.8
2023-03-28T12:37:27.062Z,21.8
2023-03-28T12:43:03.578Z,21.8
2023-03-28T12:48:56.124Z,21.8
2023-03-28T12:54:47.728Z,21.8
2023-03-28T13:00:41.857Z,21.8
2023-03-28T13:06:33.773Z,21.9
2023-03-28T13:12:25.762Z,21.8
2023-03-28T13:18:18.494Z,21.8
2023-03-28T13:23:55.155Z,21.8
2023-03-28T13:29:32.097Z,21.8
2023-03-28T13:35:24.234Z,21.8
2023-03-28T13:41:04.049Z,21.8
2023-03-28T13:46:39.899Z,21.8
2023-03-28T13:52:27.282Z,21.8
2023-03-28T13:58:31.874Z,21.8
2023-03-28T14:04:25.197Z,21.8
2023-03-28T14:10:17.203Z,21.8
2023-03-28T14:16:10.590Z,21.8
2023-03-28T14:22:02.671Z,21.8
2023-03-28T14:27:51.250Z,21.8
2023-03-28T14:33:52.838Z,21.8
2023-03-28T14:39:44.173Z,21.8
2023-03-28T14:45:35.798Z,21.8
2023-03-28T14:51:29.999Z,21.8
2023-03-28T14:57:21.149Z,21.8
2023-03-28T15:03:13.644Z,21.8
2023-03-28T15:08:52.192Z,21.8
2023-03-28T15:14:45.174Z,21.8
2023-03-28T15:20:37.854Z,21.8
2023-03-28T15:26:29.412Z,21.8
2023-03-28T15:32:07.675Z,21.8
2023-03-28T15:38:02.204Z,21.8
2023-03-28T15:43:53.125Z,21.7
2023-03-28T15:49:44.425Z,21.8
2023-03-28T15:55:55.379Z,21.7
2023-03-28T16:01:46.695Z,21.8
2023-03-28T16:07:41.799Z,21.7
2023-03-28T16:13:33.517Z,21.8
2023-03-28T16:19:10.185Z,21.7
2023-03-28T16:36:15.736Z,21.8
2023-03-28T16:42:06.872Z,21.7
2023-03-28T16:47:58.503Z,21.7
2023-03-28T16:53:49.511Z,21.7
2023-03-28T16:59:10.671Z,21.7
2023-03-28T17:05:06.484Z,21.7
2023-03-28T17:10:57.899Z,21.8
2023-03-28T17:16:49.673Z,21.7
2023-03-28T17:22:10.940Z,21.8
2023-03-28T17:28:18.645Z,21.8
2023-03-28T17:34:12.220Z,21.7
2023-03-28T17:40:04.605Z,21.8
2023-03-28T17:45:56.989Z,21.7
2023-03-28T17:51:51.854Z,21.7
2023-03-28T17:57:29.786Z,21.8
2023-03-28T18:03:06.748Z,21.8
2023-03-28T18:09:01.663Z,21.8
2023-03-28T18:14:53.624Z,21.8
2023-03-28T18:20:30.698Z,21.8
2023-03-28T18:26:08.404Z,21.8
2023-03-28T18:31:49.041Z,21.8
2023-03-28T18:37:42.034Z,21.8
2023-03-28T18:43:05.616Z,21.8
2023-03-28T18:48:58.974Z,21.8
2023-03-28T19:22:16.422Z,21.9
2023-03-28T19:27:55.396Z,21.9
2023-03-28T19:33:48.375Z,21.9
2023-03-28T19:39:42.076Z,21.9
2023-03-28T19:45:05.765Z,21.9
2023-03-28T19:51:02.555Z,21.9
2023-03-28T19:56:56.159Z,21.9
2023-03-28T20:02:32.763Z,21.9
2023-03-28T20:08:09.508Z,22
2023-03-28T20:13:49.296Z,22
2023-03-28T20:19:26.910Z,22.1
2023-03-28T20:25:03.554Z,22.1
2023-03-28T20:30:55.365Z,22.1
2023-03-28T20:36:47.316Z,22.1
2023-03-28T20:42:40.459Z,22.1
2023-03-28T20:48:17.575Z,22.1
2023-03-28T20:54:12.708Z,22.1
2023-03-28T21:00:04.814Z,22.1
2023-03-28T21:05:56.939Z,22.1
2023-03-28T21:11:48.120Z,22.1
2023-03-28T21:17:39.596Z,22.1
2023-03-28T21:23:15.653Z,22.1
2023-03-28T21:28:51.322Z,22.2
2023-03-28T21:33:58.786Z,22.2
2023-03-28T21:39:50.375Z,22.2
2023-03-28T21:50:15.821Z,22.2
2023-03-28T21:56:07.599Z,22.3
2023-03-28T22:45:27.011Z,22.3
2023-03-28T22:50:48.551Z,22.4
2023-03-28T22:56:24.796Z,22.3
2023-03-28T23:01:46.564Z,22.4
2023-03-28T23:07:38.109Z,22.4
2023-03-28T23:13:14.099Z,22.4
2023-03-28T23:19:06.418Z,22.4
2023-03-28T23:24:43.021Z,22.4
2023-03-28T23:30:36.946Z,22.4
2023-03-28T23:36:28.666Z,22.4
2023-03-28T23:42:20.338Z,22.4
2023-03-28T23:47:56.460Z,22.4
2023-03-28T23:53:17.350Z,22.4
2023-03-28T23:58:40.645Z,22.5
